Newark, Nebraska
Current Conditions -  °F | °C
As of 7:35 PM on Saturday 25 Oct 2014 (Local Time) from KEAR Reporting Station
Clear Clear  
Wind Chill: 57°   Ceiling: Unl
Heat Index: 57°   Visibility: 10mi
Dew Point: 46°   Wind: 10mph
Humidity: 67%   Direction: 50°NE
Pressure: 30.01"   Gusts: NA
Location:  40.7385°N, 98.8928°W
Report Text: KEAR 260035Z 05009KT 10SM CLR 14/08 A3001 RMK AO1
Loading
Personal Weather Stations






























Interactive Weather Map
Tropical Storm Tracking
New forecast layout! Learn more

10-Day Weather Forecast

Advertisements
Track Severe Weather on mobile